createdAt,value
2018-10-01T00:00:23.939Z,0
2018-10-01T00:01:32.018Z,0
2018-10-01T00:02:40.088Z,0
2018-10-01T00:03:48.142Z,0
2018-10-01T00:04:56.207Z,0
2018-10-01T00:06:04.282Z,0
2018-10-01T00:07:12.335Z,0
2018-10-01T00:08:20.413Z,0
2018-10-01T00:09:28.477Z,0
2018-10-01T00:10:36.536Z,0
2018-10-01T00:11:44.614Z,0
2018-10-01T00:12:52.656Z,0
2018-10-01T00:14:00.739Z,0
2018-10-01T00:15:08.812Z,0
2018-10-01T00:16:16.860Z,0
2018-10-01T00:17:24.933Z,0
2018-10-01T00:18:32.964Z,0
2018-10-01T00:19:41.062Z,0
2018-10-01T00:20:49.124Z,0
2018-10-01T00:21:57.226Z,0
2018-10-01T00:23:05.256Z,0
2018-10-01T00:24:13.297Z,0
2018-10-01T00:25:21.373Z,0
2018-10-01T00:26:29.457Z,0
2018-10-01T00:27:37.514Z,0
2018-10-01T00:28:45.595Z,0
2018-10-01T00:29:53.635Z,0
2018-10-01T00:31:01.714Z,0
2018-10-01T00:32:09.788Z,0
2018-10-01T00:33:17.855Z,0
2018-10-01T00:34:25.903Z,0
2018-10-01T00:35:33.976Z,0
2018-10-01T00:36:42.031Z,0
2018-10-01T00:37:50.109Z,0
2018-10-01T00:38:58.169Z,0
2018-10-01T00:40:06.234Z,0
2018-10-01T00:41:14.305Z,0
2018-10-01T00:42:22.392Z,0
2018-10-01T00:43:30.431Z,0
2018-10-01T00:44:38.500Z,0
2018-10-01T00:45:46.560Z,0
2018-10-01T00:46:54.622Z,0
2018-10-01T00:48:02.669Z,0
2018-10-01T00:49:10.762Z,0
2018-10-01T00:50:18.813Z,0
2018-10-01T00:51:26.896Z,0
2018-10-01T00:52:34.970Z,0
2018-10-01T00:53:42.981Z,0
2018-10-01T00:54:51.073Z,0
2018-10-01T00:55:59.155Z,0
2018-10-01T00:57:07.208Z,0
2018-10-01T00:58:15.272Z,0
2018-10-01T00:59:23.304Z,0
2018-10-01T01:00:31.420Z,0
2018-10-01T01:01:39.462Z,0
2018-10-01T01:02:47.529Z,0
2018-10-01T01:03:55.595Z,0
2018-10-01T01:05:03.644Z,0
2018-10-01T01:06:11.722Z,0
2018-10-01T01:07:19.786Z,0
2018-10-01T01:08:27.856Z,0
2018-10-01T01:09:35.917Z,0
2018-10-01T01:10:43.980Z,0
2018-10-01T01:11:52.047Z,0
2018-10-01T01:13:00.119Z,0
2018-10-01T01:14:08.201Z,0
2018-10-01T01:15:16.236Z,0
2018-10-01T01:16:24.293Z,0
2018-10-01T01:17:32.367Z,0
2018-10-01T01:18:40.441Z,0
2018-10-01T01:19:48.509Z,0
2018-10-01T01:20:56.578Z,0
2018-10-01T01:22:04.628Z,0
2018-10-01T01:23:12.677Z,0
2018-10-01T01:24:20.760Z,0
2018-10-01T01:25:28.834Z,0
2018-10-01T01:26:36.888Z,0
2018-10-01T01:27:44.970Z,0
2018-10-01T01:28:52.989Z,0
2018-10-01T01:30:01.088Z,0
2018-10-01T01:31:09.149Z,0
2018-10-01T01:32:17.228Z,0
2018-10-01T01:33:25.275Z,0
2018-10-01T01:34:33.314Z,0
2018-10-01T01:35:41.419Z,0
2018-10-01T01:36:49.481Z,0
2018-10-01T01:37:57.543Z,0
2018-10-01T01:39:05.603Z,0
2018-10-01T01:40:13.661Z,0
2018-10-01T01:41:21.732Z,0
2018-10-01T01:42:29.816Z,0
2018-10-01T01:43:37.860Z,0
2018-10-01T01:44:45.921Z,0
2018-10-01T01:45:53.996Z,0
2018-10-01T01:47:02.052Z,0
2018-10-01T01:48:10.117Z,0
2018-10-01T01:49:18.183Z,0
2018-10-01T01:50:26.272Z,0
2018-10-01T01:51:34.314Z,0
2018-10-01T01:52:42.384Z,0
2018-10-01T01:53:50.443Z,0
2018-10-01T01:54:58.529Z,0
2018-10-01T01:56:06.575Z,0
2018-10-01T01:57:14.633Z,0
2018-10-01T01:58:22.682Z,0
2018-10-01T01:59:30.770Z,0
2018-10-01T02:00:38.837Z,0
2018-10-01T02:01:46.896Z,0
2018-10-01T02:02:54.971Z,0
2018-10-01T02:04:03.016Z,0
2018-10-01T02:05:11.095Z,0
2018-10-01T02:06:19.169Z,0
2018-10-01T02:07:27.230Z,0
2018-10-01T02:08:35.301Z,0
2018-10-01T02:09:43.322Z,0
2018-10-01T02:10:51.412Z,0
2018-10-01T02:11:59.489Z,0
2018-10-01T02:13:07.563Z,0
2018-10-01T02:14:15.612Z,0
2018-10-01T02:15:23.718Z,0
2018-10-01T02:16:31.731Z,0
2018-10-01T02:17:39.798Z,0
2018-10-01T02:18:47.874Z,0
2018-10-01T02:19:55.935Z,0
2018-10-01T02:21:04.000Z,0
2018-10-01T02:22:12.069Z,0
2018-10-01T02:23:20.124Z,0
2018-10-01T02:24:28.204Z,0
2018-10-01T02:25:36.265Z,0
2018-10-01T02:26:44.328Z,0
2018-10-01T02:27:52.399Z,0
2018-10-01T02:29:00.465Z,0
2018-10-01T02:30:08.525Z,0
2018-10-01T02:31:16.589Z,0
2018-10-01T02:32:24.643Z,0
2018-10-01T02:33:32.691Z,0
2018-10-01T02:34:40.787Z,0
2018-10-01T02:35:48.856Z,0
2018-10-01T02:36:56.911Z,0
2018-10-01T02:38:04.984Z,0
2018-10-01T02:39:13.016Z,0
2018-10-01T02:40:21.125Z,0
2018-10-01T02:41:29.179Z,0
2018-10-01T02:42:37.250Z,0
2018-10-01T02:43:45.297Z,0
2018-10-01T02:44:53.359Z,0
2018-10-01T02:46:01.445Z,0
2018-10-01T02:47:09.496Z,0
2018-10-01T02:48:17.562Z,0
2018-10-01T02:49:25.650Z,0
2018-10-01T02:50:33.680Z,0
2018-10-01T02:51:41.791Z,0
2018-10-01T02:52:49.828Z,0
2018-10-01T02:53:57.874Z,0
2018-10-01T02:55:05.953Z,0
2018-10-01T02:56:14.014Z,0
2018-10-01T02:57:22.073Z,0
2018-10-01T02:58:30.142Z,0
2018-10-01T02:59:38.197Z,0
2018-10-01T03:00:46.273Z,0
2018-10-01T03:01:54.322Z,0
2018-10-01T03:03:02.402Z,0
2018-10-01T03:04:10.451Z,0
2018-10-01T03:05:18.525Z,0
2018-10-01T03:06:26.587Z,0
2018-10-01T03:07:34.653Z,0
2018-10-01T03:08:42.686Z,0
2018-10-01T03:09:50.778Z,0
2018-10-01T03:10:58.857Z,0
2018-10-01T03:12:06.967Z,0
2018-10-01T03:13:14.983Z,0
2018-10-01T03:14:23.011Z,0
2018-10-01T03:15:31.100Z,0
2018-10-01T03:16:39.176Z,0
2018-10-01T03:17:47.231Z,0
2018-10-01T03:18:55.289Z,0
2018-10-01T03:20:03.329Z,0
2018-10-01T03:21:11.490Z,0
2018-10-01T03:22:19.482Z,0
2018-10-01T03:23:27.549Z,0
2018-10-01T03:24:35.604Z,0
2018-10-01T03:25:43.673Z,0
2018-10-01T03:26:51.754Z,0
2018-10-01T03:27:59.803Z,0
2018-10-01T03:29:07.878Z,0
2018-10-01T03:30:15.940Z,0
2018-10-01T03:31:24.004Z,0
2018-10-01T03:32:32.063Z,0
2018-10-01T03:33:40.122Z,0
2018-10-01T03:34:48.200Z,0
2018-10-01T03:35:56.249Z,0
2018-10-01T03:37:04.306Z,0
2018-10-01T03:38:12.385Z,0
2018-10-01T03:39:20.449Z,0
2018-10-01T03:40:28.515Z,0
2018-10-01T03:41:36.572Z,0
2018-10-01T03:42:44.643Z,0
2018-10-01T03:43:52.690Z,0
2018-10-01T03:45:00.771Z,0
2018-10-01T03:46:08.845Z,0
2018-10-01T03:47:16.897Z,0
2018-10-01T03:48:24.968Z,0
2018-10-01T03:49:32.997Z,0
2018-10-01T03:50:41.094Z,0
2018-10-01T03:51:49.145Z,0
2018-10-01T03:52:57.218Z,0
2018-10-01T03:54:05.277Z,0
2018-10-01T03:55:13.311Z,0
2018-10-01T03:56:21.412Z,0
2018-10-01T03:57:29.491Z,0
2018-10-01T03:58:37.528Z,0
2018-10-01T03:59:45.603Z,0
2018-10-01T04:00:53.651Z,0
2018-10-01T04:02:01.762Z,0
2018-10-01T04:03:09.810Z,0
2018-10-01T04:04:18.223Z,0
2018-10-01T04:05:25.945Z,0
2018-10-01T04:06:33.997Z,0
2018-10-01T04:07:42.043Z,0
2018-10-01T04:08:50.198Z,0
2018-10-01T04:09:58.231Z,0
2018-10-01T04:11:06.965Z,0
2018-10-01T04:12:14.287Z,0
2018-10-01T04:13:22.354Z,0
2018-10-01T04:14:30.424Z,0
2018-10-01T04:15:38.483Z,0
2018-10-01T04:16:46.583Z,0
2018-10-01T04:17:54.618Z,0
2018-10-01T04:19:02.657Z,0
2018-10-01T04:20:10.738Z,0
2018-10-01T04:21:18.796Z,0
2018-10-01T04:22:27.215Z,0
2018-10-01T04:23:34.924Z,0
2018-10-01T04:24:42.974Z,0
2018-10-01T04:25:51.051Z,0
2018-10-01T04:26:59.121Z,0
2018-10-01T04:28:07.604Z,0
2018-10-01T04:29:15.260Z,0
2018-10-01T04:30:23.276Z,0
2018-10-01T04:31:31.371Z,0
2018-10-01T04:32:39.439Z,0
2018-10-01T04:33:47.498Z,0
2018-10-01T04:34:55.775Z,0
2018-10-01T04:36:03.620Z,0
2018-10-01T04:37:11.699Z,0
2018-10-01T04:38:19.869Z,0
2018-10-01T04:39:27.826Z,0
2018-10-01T04:40:35.895Z,0
2018-10-01T04:41:44.029Z,0
2018-10-01T04:42:52.014Z,0
2018-10-01T04:44:00.074Z,0
2018-10-01T04:45:08.137Z,0
2018-10-01T04:46:16.192Z,0
2018-10-01T04:47:24.268Z,0
2018-10-01T04:48:32.320Z,0
2018-10-01T04:49:40.391Z,0
2018-10-01T04:50:48.450Z,0
2018-10-01T04:51:56.577Z,0
2018-10-01T04:53:04.575Z,0
2018-10-01T04:54:12.629Z,0
2018-10-01T04:55:20.703Z,0
2018-10-01T04:56:28.786Z,0
2018-10-01T04:57:36.831Z,0
2018-10-01T04:58:44.905Z,0
2018-10-01T04:59:52.937Z,0
2018-10-01T05:01:01.077Z,0
2018-10-01T05:02:09.094Z,0
2018-10-01T05:03:17.154Z,0
2018-10-01T05:04:25.211Z,0
2018-10-01T05:05:33.271Z,0
2018-10-01T05:06:41.338Z,0
2018-10-01T05:07:49.398Z,0
2018-10-01T05:08:57.469Z,0
2018-10-01T05:10:05.538Z,0
2018-10-01T05:11:13.595Z,0
2018-10-01T05:12:21.671Z,0
2018-10-01T05:13:29.717Z,0
2018-10-01T05:14:37.813Z,0
2018-10-01T05:15:45.866Z,0
2018-10-01T05:16:53.918Z,0
2018-10-01T05:18:01.978Z,0
2018-10-01T05:19:10.062Z,0
2018-10-01T05:20:18.098Z,0
2018-10-01T05:21:26.174Z,0
2018-10-01T05:22:34.225Z,0
2018-10-01T05:23:42.316Z,0
2018-10-01T05:24:50.365Z,0
2018-10-01T05:25:58.442Z,0
2018-10-01T05:27:06.541Z,0
2018-10-01T05:28:14.576Z,0
2018-10-01T05:29:22.603Z,0
2018-10-01T05:30:30.695Z,5
2018-10-01T05:31:38.758Z,5
2018-10-01T05:32:46.822Z,5
2018-10-01T05:33:54.893Z,5
2018-10-01T05:35:02.910Z,5
2018-10-01T05:36:10.994Z,5
2018-10-01T05:37:19.081Z,5
2018-10-01T05:38:27.160Z,5
2018-10-01T05:39:35.196Z,5
2018-10-01T05:40:43.264Z,5
2018-10-01T05:41:51.329Z,10
2018-10-01T05:42:59.401Z,10
2018-10-01T05:44:07.455Z,10
2018-10-01T05:45:15.515Z,10
2018-10-01T05:46:23.583Z,10
2018-10-01T05:47:31.654Z,15
2018-10-01T05:48:39.717Z,15
2018-10-01T05:49:47.771Z,15
2018-10-01T05:50:55.839Z,15
2018-10-01T05:52:03.905Z,20
2018-10-01T05:53:11.974Z,20
2018-10-01T05:54:20.031Z,20
2018-10-01T05:55:28.103Z,25
2018-10-01T05:56:36.157Z,25
2018-10-01T05:57:44.235Z,30
2018-10-01T05:58:52.283Z,30
2018-10-01T06:00:00.378Z,30
2018-10-01T06:01:08.423Z,30
2018-10-01T06:02:16.464Z,35
2018-10-01T06:03:24.544Z,35
2018-10-01T06:04:32.595Z,35
2018-10-01T06:05:40.661Z,35
2018-10-01T06:06:48.731Z,40
2018-10-01T06:07:56.805Z,40
2018-10-01T06:09:04.866Z,40
2018-10-01T06:10:12.908Z,45
2018-10-01T06:11:20.979Z,45
2018-10-01T06:12:29.061Z,45
2018-10-01T06:13:37.118Z,50
2018-10-01T06:14:45.176Z,50
2018-10-01T06:15:53.209Z,55
2018-10-01T06:17:01.299Z,55
2018-10-01T06:18:09.382Z,60
2018-10-01T06:19:17.424Z,60
2018-10-01T06:20:25.495Z,60
2018-10-01T06:21:33.534Z,65
2018-10-01T06:22:41.625Z,65
2018-10-01T06:23:49.676Z,65
2018-10-01T06:24:57.807Z,65
2018-10-01T06:26:05.806Z,70
2018-10-01T06:27:13.887Z,70
2018-10-01T06:28:21.939Z,70
2018-10-01T06:29:30.001Z,70
2018-10-01T06:30:38.056Z,75
2018-10-01T06:31:46.140Z,75
2018-10-01T06:32:54.188Z,75
2018-10-01T06:34:02.250Z,75
2018-10-01T06:35:10.322Z,80
2018-10-01T06:36:18.412Z,85
2018-10-01T06:37:26.444Z,90
2018-10-01T06:38:34.519Z,95
2018-10-01T06:39:42.554Z,95
2018-10-01T06:40:50.661Z,105
2018-10-01T06:41:58.795Z,110
2018-10-01T06:43:06.768Z,115
2018-10-01T06:44:14.827Z,115
2018-10-01T06:45:22.878Z,115
2018-10-01T06:46:30.963Z,115
2018-10-01T06:47:39.022Z,115
2018-10-01T06:48:47.102Z,115
2018-10-01T06:49:55.160Z,115
2018-10-01T06:51:03.235Z,115
2018-10-01T06:52:11.277Z,115
2018-10-01T06:53:19.355Z,115
2018-10-01T06:54:27.424Z,120
2018-10-01T06:55:35.482Z,120
2018-10-01T06:56:43.531Z,125
2018-10-01T06:57:51.607Z,125
2018-10-01T06:58:59.673Z,125
2018-10-01T07:00:07.726Z,125
2018-10-01T07:01:15.845Z,125
2018-10-01T07:02:23.856Z,125
2018-10-01T07:03:31.929Z,130
2018-10-01T07:04:39.990Z,130
2018-10-01T07:05:48.294Z,130
2018-10-01T07:06:56.120Z,130
2018-10-01T07:08:04.180Z,130
2018-10-01T07:09:12.260Z,130
2018-10-01T07:10:20.320Z,135
2018-10-01T07:11:28.435Z,130
2018-10-01T07:12:36.446Z,130
2018-10-01T07:13:44.506Z,130
2018-10-01T07:14:52.539Z,130
2018-10-01T07:16:00.631Z,135
2018-10-01T07:17:08.772Z,135
2018-10-01T07:18:16.754Z,135
2018-10-01T07:19:24.822Z,135
2018-10-01T07:20:32.849Z,135
2018-10-01T07:21:40.943Z,135
2018-10-01T07:22:49.112Z,135
2018-10-01T07:23:57.075Z,135
2018-10-01T07:25:05.142Z,140
2018-10-01T07:26:13.182Z,140
2018-10-01T07:27:21.261Z,140
2018-10-01T07:28:29.327Z,145
2018-10-01T07:29:37.402Z,145
2018-10-01T07:30:45.467Z,145
2018-10-01T07:31:53.506Z,145
2018-10-01T07:33:01.592Z,145
2018-10-01T07:34:09.669Z,145
2018-10-01T07:35:17.733Z,145
2018-10-01T07:36:25.784Z,145
2018-10-01T07:37:33.857Z,145
2018-10-01T07:38:41.916Z,145
2018-10-01T07:39:49.984Z,145
2018-10-01T07:40:58.036Z,150
2018-10-01T07:42:06.102Z,150
2018-10-01T07:43:14.168Z,155
2018-10-01T07:44:22.252Z,160
2018-10-01T07:45:30.307Z,160
2018-10-01T07:46:38.351Z,165
2018-10-01T07:47:46.443Z,165
2018-10-01T07:48:54.535Z,170
2018-10-01T07:50:02.538Z,170
2018-10-01T07:51:10.810Z,170
2018-10-01T07:52:18.686Z,175
2018-10-01T07:53:26.825Z,180
2018-10-01T07:54:34.830Z,185
2018-10-01T07:55:42.944Z,185
2018-10-01T07:56:50.948Z,190
2018-10-01T07:57:59.062Z,195
2018-10-01T07:59:07.078Z,200
2018-10-01T08:00:15.159Z,205
2018-10-01T08:01:23.175Z,220
2018-10-01T08:02:31.415Z,230
2018-10-01T08:03:39.325Z,240
2018-10-01T08:04:47.401Z,255
2018-10-01T08:08:28.764Z,280
2018-10-01T08:09:36.827Z,280
2018-10-01T08:10:44.887Z,280
2018-10-01T08:11:52.923Z,280
2018-10-01T08:13:01.017Z,280
2018-10-01T08:14:09.223Z,285
2018-10-01T08:15:17.169Z,285
2018-10-01T08:16:25.207Z,285
2018-10-01T08:17:33.243Z,280
2018-10-01T08:18:41.342Z,280
2018-10-01T08:19:49.409Z,285
2018-10-01T08:20:57.481Z,285
2018-10-01T08:22:05.530Z,290
2018-10-01T08:23:13.602Z,290
2018-10-01T08:24:21.674Z,290
2018-10-01T08:25:29.728Z,300
2018-10-01T08:26:37.839Z,310
2018-10-01T08:27:45.867Z,325
2018-10-01T08:28:53.928Z,340
2018-10-01T08:30:02.214Z,350
2018-10-01T08:31:10.065Z,360
2018-10-01T08:32:18.222Z,365
2018-10-01T08:33:26.185Z,370
2018-10-01T08:34:34.253Z,370
2018-10-01T08:35:42.316Z,380
2018-10-01T08:36:50.403Z,390
2018-10-01T08:37:58.514Z,405
2018-10-01T08:39:06.562Z,410
2018-10-01T08:40:14.570Z,425
2018-10-01T08:41:22.688Z,430
2018-10-01T08:42:30.716Z,425
2018-10-01T08:43:38.771Z,410
2018-10-01T08:44:46.848Z,380
2018-10-01T08:45:54.914Z,360
2018-10-01T08:47:02.981Z,345
2018-10-01T08:48:11.049Z,340
2018-10-01T08:49:19.109Z,350
2018-10-01T08:50:27.231Z,370
2018-10-01T08:51:35.282Z,390
2018-10-01T08:52:43.283Z,405
2018-10-01T08:53:51.377Z,405
2018-10-01T08:54:59.497Z,395
2018-10-01T08:56:07.519Z,380
2018-10-01T08:57:15.574Z,380
2018-10-01T08:58:23.635Z,385
2018-10-01T08:59:31.795Z,385
2018-10-01T09:00:39.773Z,385
2018-10-01T09:01:47.831Z,385
2018-10-01T09:02:55.907Z,390
2018-10-01T09:04:03.987Z,390
2018-10-01T09:05:12.129Z,390
2018-10-01T09:06:20.109Z,390
2018-10-01T09:07:28.266Z,380
2018-10-01T09:08:36.295Z,365
2018-10-01T09:09:44.297Z,355
2018-10-01T09:10:52.376Z,340
2018-10-01T09:12:00.431Z,340
2018-10-01T09:13:08.515Z,340
2018-10-01T09:14:16.617Z,330
2018-10-01T09:15:24.644Z,320
2018-10-01T09:16:32.675Z,325
2018-10-01T09:17:40.775Z,340
2018-10-01T09:18:48.834Z,350
2018-10-01T09:19:56.963Z,365
2018-10-01T09:21:04.987Z,375
2018-10-01T09:22:13.021Z,380
2018-10-01T09:23:21.168Z,390
2018-10-01T09:24:29.199Z,405
2018-10-01T09:25:37.236Z,405
2018-10-01T09:26:45.334Z,410
2018-10-01T09:27:53.342Z,410
2018-10-01T09:29:01.468Z,410
2018-10-01T09:30:09.498Z,415
2018-10-01T09:31:17.586Z,420
2018-10-01T09:32:25.649Z,420
2018-10-01T09:33:33.722Z,430
2018-10-01T09:34:41.769Z,420
2018-10-01T09:35:49.840Z,415
2018-10-01T09:36:57.891Z,410
2018-10-01T09:38:06.025Z,405
2018-10-01T09:39:14.047Z,405
2018-10-01T09:40:22.130Z,400
2018-10-01T09:41:30.161Z,395
2018-10-01T09:42:38.239Z,390
2018-10-01T09:43:46.302Z,385
2018-10-01T09:44:54.384Z,375
2018-10-01T09:46:02.497Z,375
2018-10-01T09:47:10.502Z,380
2018-10-01T09:48:18.561Z,365
2018-10-01T09:49:26.653Z,350
2018-10-01T09:50:34.791Z,330
2018-10-01T09:51:42.748Z,315
2018-10-01T09:52:50.841Z,310
2018-10-01T09:53:58.906Z,305
2018-10-01T09:55:06.984Z,315
2018-10-01T09:56:15.091Z,310
2018-10-01T09:57:23.077Z,310
2018-10-01T09:58:31.221Z,300
2018-10-01T09:59:39.231Z,300
2018-10-01T10:00:47.293Z,300
2018-10-01T10:01:55.410Z,300
2018-10-01T10:03:03.423Z,305
2018-10-01T10:04:11.660Z,305
2018-10-01T10:05:19.565Z,315
2018-10-01T10:06:27.638Z,320
2018-10-01T10:07:35.711Z,330
2018-10-01T10:08:43.765Z,330
2018-10-01T10:09:51.839Z,335
2018-10-01T10:10:59.911Z,340
2018-10-01T10:12:07.971Z,345
2018-10-01T10:13:16.031Z,345
2018-10-01T10:14:24.113Z,350
2018-10-01T10:15:32.166Z,345
2018-10-01T10:16:40.385Z,345
2018-10-01T10:17:48.321Z,345
2018-10-01T10:18:56.360Z,345
2018-10-01T10:20:04.452Z,350
2018-10-01T10:21:12.496Z,355
2018-10-01T10:22:20.592Z,365
2018-10-01T10:23:28.643Z,370
2018-10-01T10:24:36.711Z,375
2018-10-01T10:25:44.770Z,365
2018-10-01T10:26:52.797Z,345
2018-10-01T10:28:00.952Z,315
2018-10-01T10:29:08.971Z,290
2018-10-01T10:30:17.042Z,255
2018-10-01T10:31:25.099Z,230
2018-10-01T10:32:33.197Z,235
2018-10-01T10:33:41.242Z,285
2018-10-01T10:34:49.322Z,290
2018-10-01T10:35:57.365Z,265
2018-10-01T10:37:05.469Z,260
2018-10-01T10:38:13.534Z,285
2018-10-01T10:39:21.605Z,310
2018-10-01T10:40:29.628Z,330
2018-10-01T10:41:37.738Z,330
2018-10-01T10:42:45.775Z,340
2018-10-01T10:43:53.845Z,335
2018-10-01T10:45:01.893Z,340
2018-10-01T10:46:09.952Z,345
2018-10-01T10:47:18.035Z,350
2018-10-01T10:48:26.105Z,360
2018-10-01T10:49:34.163Z,365
2018-10-01T10:50:42.315Z,365
2018-10-01T10:51:50.289Z,335
2018-10-01T10:52:58.364Z,285
2018-10-01T10:54:06.432Z,235
2018-10-01T10:55:14.494Z,190
2018-10-01T10:56:22.569Z,175
2018-10-01T10:57:30.663Z,175
2018-10-01T10:58:38.695Z,180
2018-10-01T10:59:46.754Z,180
2018-10-01T11:00:54.827Z,170
2018-10-01T11:02:02.934Z,160
2018-10-01T11:03:10.942Z,160
2018-10-01T11:04:19.025Z,155
2018-10-01T11:05:27.089Z,135
2018-10-01T11:06:35.155Z,110
2018-10-01T11:07:43.202Z,125
2018-10-01T11:08:51.286Z,150
2018-10-01T11:09:59.355Z,165
2018-10-01T11:11:07.424Z,175
2018-10-01T11:12:15.484Z,190
2018-10-01T11:13:23.525Z,205
2018-10-01T11:14:31.829Z,215
2018-10-01T11:15:39.698Z,220
2018-10-01T11:16:47.764Z,195
2018-10-01T11:17:55.825Z,165
2018-10-01T11:19:04.132Z,160
2018-10-01T11:20:12.005Z,140
2018-10-01T11:21:20.077Z,110
2018-10-01T11:22:28.135Z,85
2018-10-01T11:23:36.146Z,70
2018-10-01T11:24:44.230Z,80
2018-10-01T11:25:52.274Z,105
2018-10-01T11:27:00.344Z,130
2018-10-01T11:28:08.413Z,140
2018-10-01T11:29:16.485Z,135
2018-10-01T11:30:24.542Z,135
2018-10-01T11:31:32.621Z,115
2018-10-01T11:32:40.655Z,100
2018-10-01T11:33:48.731Z,90
2018-10-01T11:34:56.888Z,90
2018-10-01T11:36:04.863Z,90
2018-10-01T11:37:12.907Z,75
2018-10-01T11:38:21.000Z,60
2018-10-01T11:39:29.107Z,55
2018-10-01T11:40:37.123Z,55
2018-10-01T11:41:45.188Z,60
2018-10-01T11:42:53.239Z,75
2018-10-01T11:44:01.345Z,90
2018-10-01T11:45:09.432Z,105
2018-10-01T11:46:17.450Z,100
2018-10-01T11:47:25.527Z,130
2018-10-01T11:48:33.587Z,155
2018-10-01T11:49:41.657Z,165
2018-10-01T11:50:49.736Z,170
2018-10-01T11:51:57.826Z,195
2018-10-01T11:53:05.853Z,220
2018-10-01T11:54:13.953Z,225
2018-10-01T11:55:24.594Z,215
2018-10-01T11:56:32.641Z,210
2018-10-01T11:57:40.813Z,210
2018-10-01T11:58:48.794Z,195
2018-10-01T11:59:56.860Z,210
2018-10-01T12:01:04.930Z,230
2018-10-01T12:02:12.965Z,225
2018-10-01T12:03:21.076Z,220
2018-10-01T12:04:29.120Z,210
2018-10-01T12:05:37.174Z,200
2018-10-01T12:06:45.241Z,205
2018-10-01T12:07:53.272Z,205
2018-10-01T12:09:01.392Z,220
2018-10-01T12:10:09.524Z,230
2018-10-01T12:11:17.584Z,240
2018-10-01T12:12:25.561Z,255
2018-10-01T12:13:33.657Z,270
2018-10-01T12:14:41.700Z,285
2018-10-01T12:15:50.064Z,295
2018-10-01T12:17:00.455Z,300
2018-10-01T12:19:23.124Z,305
2018-10-01T12:20:31.131Z,300
2018-10-01T12:21:39.260Z,300
2018-10-01T12:22:47.239Z,300
2018-10-01T12:23:55.296Z,300
2018-10-01T12:25:03.338Z,295
2018-10-01T12:26:11.431Z,290
2018-10-01T12:27:19.561Z,280
2018-10-01T12:28:27.555Z,275
2018-10-01T12:29:35.621Z,265
2018-10-01T12:30:43.707Z,265
2018-10-01T12:31:51.805Z,265
2018-10-01T12:32:59.889Z,265
2018-10-01T12:34:07.885Z,260
2018-10-01T12:35:15.950Z,255
2018-10-01T12:36:24.031Z,245
2018-10-01T12:37:33.136Z,245
2018-10-01T12:38:47.111Z,250
2018-10-01T12:39:48.410Z,245
2018-10-01T12:40:56.281Z,235
2018-10-01T12:42:04.361Z,230
2018-10-01T12:43:12.405Z,225
2018-10-01T12:44:20.467Z,210
2018-10-01T12:45:28.585Z,195
2018-10-01T12:46:36.603Z,190
2018-10-01T12:47:44.686Z,180
2018-10-01T12:48:52.752Z,170
2018-10-01T12:50:00.822Z,160
2018-10-01T12:51:08.933Z,165
2018-10-01T12:52:16.938Z,170
2018-10-01T12:53:25.014Z,170
2018-10-01T12:54:33.051Z,170
2018-10-01T12:55:41.129Z,170
2018-10-01T12:56:49.195Z,180
2018-10-01T12:57:57.260Z,185
2018-10-01T12:59:05.596Z,180
2018-10-01T13:00:15.562Z,180
2018-10-01T13:01:23.445Z,195
2018-10-01T13:02:31.540Z,210
2018-10-01T13:03:39.614Z,215
2018-10-01T13:04:48.693Z,215
2018-10-01T13:05:56.730Z,215
2018-10-01T13:07:04.791Z,215
2018-10-01T13:08:12.839Z,215
2018-10-01T13:09:20.946Z,220
2018-10-01T13:10:28.993Z,210
2018-10-01T13:11:37.046Z,205
2018-10-01T13:12:46.356Z,205
2018-10-01T13:13:53.160Z,200
2018-10-01T13:15:01.255Z,195
2018-10-01T13:16:09.312Z,190
2018-10-01T13:17:17.386Z,190
2018-10-01T13:18:25.460Z,185
2018-10-01T13:19:33.490Z,185
2018-10-01T13:20:41.576Z,185
2018-10-01T13:21:49.652Z,190
2018-10-01T13:22:57.716Z,195
2018-10-01T13:24:05.832Z,200
2018-10-01T13:25:13.969Z,210
2018-10-01T13:26:21.910Z,220
2018-10-01T13:27:29.968Z,230
2018-10-01T13:28:38.044Z,250
2018-10-01T13:29:46.124Z,265
2018-10-01T13:30:54.188Z,275
2018-10-01T13:32:02.309Z,290
2018-10-01T13:33:10.302Z,300
2018-10-01T13:34:18.360Z,300
2018-10-01T13:35:26.460Z,310
2018-10-01T13:36:34.552Z,315
2018-10-01T13:37:42.546Z,320
2018-10-01T13:38:50.625Z,325
2018-10-01T13:39:58.706Z,320
2018-10-01T13:41:06.755Z,325
2018-10-01T13:42:14.968Z,330
2018-10-01T13:43:22.870Z,335
2018-10-01T13:44:31.017Z,345
2018-10-01T13:45:39.034Z,355
2018-10-01T13:46:47.095Z,365
2018-10-01T13:47:55.227Z,385
2018-10-01T13:49:03.218Z,395
2018-10-01T13:50:11.296Z,395
2018-10-01T13:51:19.364Z,395
2018-10-01T13:52:27.426Z,375
2018-10-01T13:53:35.500Z,355
2018-10-01T13:54:44.144Z,340
2018-10-01T13:55:51.629Z,335
2018-10-01T13:56:59.691Z,330
2018-10-01T13:58:07.771Z,325
2018-10-01T13:59:15.815Z,315
2018-10-01T14:00:23.891Z,305
2018-10-01T14:01:32.028Z,300
2018-10-01T14:02:40.029Z,295
2018-10-01T14:03:48.078Z,285
2018-10-01T14:04:56.191Z,275
2018-10-01T14:06:04.220Z,270
2018-10-01T14:07:12.383Z,260
2018-10-01T14:08:20.349Z,250
2018-10-01T14:09:28.428Z,240
2018-10-01T14:10:36.472Z,240
2018-10-01T14:11:44.552Z,235
2018-10-01T14:12:52.595Z,235
2018-10-01T14:14:00.728Z,240
2018-10-01T14:15:08.758Z,240
2018-10-01T14:16:16.830Z,245
2018-10-01T14:17:24.873Z,245
2018-10-01T14:18:32.916Z,245
2018-10-01T14:19:41.071Z,250
2018-10-01T14:20:49.085Z,255
2018-10-01T14:21:57.230Z,260
2018-10-01T14:23:05.225Z,260
2018-10-01T14:24:13.261Z,265
2018-10-01T14:25:21.394Z,265
2018-10-01T14:26:29.409Z,265
2018-10-01T14:27:37.483Z,270
2018-10-01T14:28:45.564Z,275
2018-10-01T14:29:53.626Z,280
2018-10-01T14:31:01.817Z,290
2018-10-01T14:32:09.744Z,300
2018-10-01T14:33:17.803Z,290
2018-10-01T14:34:25.891Z,285
2018-10-01T14:35:33.948Z,280
2018-10-01T14:36:42.092Z,280
2018-10-01T14:37:50.075Z,280
2018-10-01T14:38:58.155Z,285
2018-10-01T14:40:06.210Z,290
2018-10-01T14:41:14.267Z,290
2018-10-01T14:42:22.375Z,280
2018-10-01T14:43:30.420Z,280
2018-10-01T14:44:38.472Z,275
2018-10-01T14:45:46.544Z,275
2018-10-01T14:46:54.603Z,270
2018-10-01T14:48:02.727Z,270
2018-10-01T14:49:10.737Z,275
2018-10-01T14:50:18.814Z,270
2018-10-01T14:51:26.874Z,265
2018-10-01T14:52:34.947Z,265
2018-10-01T14:53:43.190Z,260
2018-10-01T14:54:51.077Z,260
2018-10-01T14:55:59.142Z,255
2018-10-01T14:57:07.223Z,250
2018-10-01T14:58:15.274Z,245
2018-10-01T14:59:23.308Z,240
2018-10-01T15:00:31.559Z,240
2018-10-01T15:01:39.484Z,235
2018-10-01T15:02:47.544Z,230
2018-10-01T15:03:55.730Z,230
2018-10-01T15:05:03.681Z,235
2018-10-01T15:06:11.797Z,235
2018-10-01T15:07:19.805Z,235
2018-10-01T15:08:28.136Z,225
2018-10-01T15:09:35.946Z,215
2018-10-01T15:10:44.043Z,220
2018-10-01T15:11:52.072Z,230
2018-10-01T15:13:00.138Z,255
2018-10-01T15:14:08.182Z,255
2018-10-01T15:15:16.270Z,235
2018-10-01T15:16:24.407Z,210
2018-10-01T15:17:32.413Z,205
2018-10-01T15:18:40.559Z,200
2018-10-01T15:19:48.582Z,180
2018-10-01T15:20:56.604Z,165
2018-10-01T15:22:04.677Z,150
2018-10-01T15:23:12.704Z,135
2018-10-01T15:24:20.816Z,130
2018-10-01T15:25:28.855Z,140
2018-10-01T15:26:36.949Z,145
2018-10-01T15:27:45.000Z,155
2018-10-01T15:28:53.055Z,135
2018-10-01T15:30:01.150Z,110
2018-10-01T15:31:09.218Z,120
2018-10-01T15:32:17.265Z,145
2018-10-01T15:33:25.339Z,165
2018-10-01T15:34:34.079Z,180
2018-10-01T15:35:41.863Z,175
2018-10-01T15:36:49.913Z,175
2018-10-01T15:37:57.838Z,165
2018-10-01T15:39:05.667Z,175
2018-10-01T15:40:13.735Z,165
2018-10-01T15:41:21.786Z,155
2018-10-01T15:42:29.970Z,145
2018-10-01T15:43:37.933Z,140
2018-10-01T15:44:45.978Z,140
2018-10-01T15:45:54.143Z,150
2018-10-01T15:47:02.130Z,155
2018-10-01T15:48:10.602Z,150
2018-10-01T15:49:18.248Z,150
2018-10-01T15:50:26.324Z,150
2018-10-01T15:51:34.389Z,155
2018-10-01T15:52:42.454Z,155
2018-10-01T15:53:50.535Z,145
2018-10-01T15:54:58.583Z,145
2018-10-01T15:56:06.660Z,145
2018-10-01T15:57:14.727Z,155
2018-10-01T15:58:22.754Z,140
2018-10-01T15:59:30.834Z,100
2018-10-01T16:00:38.934Z,70
2018-10-01T16:01:46.969Z,50
2018-10-01T16:02:55.045Z,50
2018-10-01T16:04:03.099Z,55
2018-10-01T16:05:11.195Z,45
2018-10-01T16:06:19.263Z,35
2018-10-01T16:07:27.310Z,35